Decoded Metar for KMFI (MARSHFIELD in WI, USA) (IATA:MFI) | Meteo·Mobile Aviation Weather
aviador You're here:

KMFI Decoded Metar

MARSHFIELD in WI, USA
Report Time2019-10-18 12:54:00
UTC Time2019-10-18 13:51:41
Flight Rules vfr VFR
Wind160° at 08 kt
W.Decomp.*RWY 16: 8.0 kt HW -0 kt LCW
RWY 23: 2.7 kt HW 7.5 kt LCW
Visibility9999 m
Phenomena:N/A
Clouds:N/A
Expected CloudBase > 800 ft AGL from Temp-Dew spread
CeilingNone
Temp04°C (ISA -9)
Dew Point02°C (87% RH)
AAT-0.5°C
QNH1014 hPa
Density Alt279 ft
Elevation1,243 ft
Report Wrong Elevation
Raw Report
KMFI 181254Z AUTO 16008KT 10SM CLR 04/02 A2995 RMK AO2 SLP154
T00390017=

Extra information for KMFI:More info

Metar Taf Metar & Taf Last 4 Metars F.Rules Stats Wind Profile Meteogram Temp Stats Airport Information Weather charts Add Link Nearby VenuesMetar ALERT Operation Metar Decoded Social comments

AIRNAV info for KMFI